Time;durP1;ratioP1;P1;durP2;ratioP2;P2;SDS_P1;SDS_P2;PMS_P1;PMS_P2;Temp;Humidity;BMP_temperature;BMP_pressure;BME280_temperature;BME280_humidity;BME280_pressure;Samples;Min_cycle;Max_cycle;Signal;HPM_P1;HPM_P2
2022/10/28 00:02:23;;;;;;;3.97;1.70;;;18.90;93.40;;;;;;4945267;28;20022;-80
2022/10/28 00:04:48;;;;;;;3.43;1.37;;;18.80;93.40;;;;;;4991263;28;20018;-81
2022/10/28 00:07:14;;;;;;;3.03;1.50;;;18.80;93.40;;;;;;4977494;28;20270;-81
2022/10/28 00:09:40;;;;;;;3.08;1.58;;;18.70;93.50;;;;;;4994009;28;20040;-80
2022/10/28 00:12:05;;;;;;;4.77;1.70;;;18.70;93.50;;;;;;4985125;28;20286;-80
2022/10/28 00:14:31;;;;;;;3.67;1.63;;;18.70;93.50;;;;;;4987040;28;20507;-80
2022/10/28 00:16:57;;;;;;;5.50;1.60;;;18.60;93.60;;;;;;4985656;28;20136;-80
2022/10/28 00:19:22;;;;;;;3.27;1.67;;;18.60;93.70;;;;;;4962651;28;20060;-80
2022/10/28 00:21:48;;;;;;;4.03;1.87;;;18.50;93.70;;;;;;4982164;28;20018;-80
2022/10/28 00:24:14;;;;;;;4.70;1.70;;;18.50;93.80;;;;;;4974267;28;20224;-80
2022/10/28 00:26:42;;;;;;;4.47;1.60;;;18.50;93.90;;;;;;4986016;28;20414;-80
2022/10/28 00:29:14;;;;;;;3.67;1.38;;;18.50;94.00;;;;;;4975709;28;20294;-80
2022/10/28 00:31:40;;;;;;;3.65;1.73;;;18.50;94.00;;;;;;4972529;28;20555;-80
2022/10/28 00:34:09;;;;;;;4.10;1.75;;;18.50;94.20;;;;;;4971517;28;20022;-80
2022/10/28 00:36:37;;;;;;;3.85;1.65;;;18.50;94.20;;;;;;4989550;28;20052;-80
2022/10/28 00:39:09;;;;;;;4.20;1.70;;;18.50;94.30;;;;;;4983126;28;20421;-80
2022/10/28 00:41:37;;;;;;;3.38;1.60;;;18.50;94.30;;;;;;4987386;28;20030;-80
2022/10/28 00:44:40;;;;;;;6.68;1.80;;;18.50;94.20;;;;;;4961260;28;20241;-80
2022/10/28 00:47:29;;;;;;;3.63;1.58;;;18.50;94.00;;;;;;4977328;28;20257;-80
2022/10/28 00:50:23;;;;;;;3.97;1.40;;;18.50;93.90;;;;;;4961592;28;20049;-80
2022/10/28 00:52:54;;;;;;;2.83;1.40;;;18.50;94.00;;;;;;4983916;28;20045;-80
2022/10/28 00:55:21;;;;;;;2.90;1.42;;;18.50;94.00;;;;;;4966690;28;20031;-80
2022/10/28 00:57:47;;;;;;;2.92;1.38;;;18.50;94.00;;;;;;4957204;28;20030;-80
2022/10/28 01:00:13;;;;;;;3.30;1.52;;;18.40;94.00;;;;;;4987539;28;20484;-80
2022/10/28 01:02:46;;;;;;;4.68;1.80;;;18.40;94.00;;;;;;4981846;28;20466;-80
2022/10/28 01:05:15;;;;;;;4.40;1.70;;;18.30;93.90;;;;;;4971822;28;20017;-80
2022/10/28 01:07:41;;;;;;;3.95;1.63;;;18.30;94.00;;;;;;4993160;28;20235;-81
2022/10/28 01:10:08;;;;;;;3.70;1.60;;;18.20;94.00;;;;;;4956329;28;20572;-80
2022/10/28 01:12:55;;;;;;;4.93;1.70;;;18.20;94.00;;;;;;4971002;28;20105;-80
2022/10/28 01:15:36;;;;;;;4.05;1.55;;;18.20;94.10;;;;;;4978664;28;20227;-81
2022/10/28 01:18:17;;;;;;;4.70;1.60;;;18.20;94.10;;;;;;4980879;28;20018;-80
2022/10/28 01:21:19;;;;;;;3.65;1.48;;;18.10;94.20;;;;;;4976924;28;20030;-80
2022/10/28 01:24:14;;;;;;;2.80;1.50;;;18.10;94.20;;;;;;4996595;28;20061;-80
2022/10/28 01:26:59;;;;;;;2.58;1.27;;;18.10;94.20;;;;;;4986050;28;20749;-80
2022/10/28 01:30:03;;;;;;;4.25;1.77;;;18.00;94.20;;;;;;4988328;28;20026;-80
2022/10/28 01:32:49;;;;;;;6.93;1.90;;;18.00;94.20;;;;;;4982987;28;20379;-80
2022/10/28 01:35:29;;;;;;;3.13;1.45;;;18.00;94.20;;;;;;4964849;28;20385;-80
2022/10/28 01:37:58;;;;;;;3.03;1.40;;;17.90;94.50;;;;;;4995890;28;20104;-80
2022/10/28 01:40:32;;;;;;;3.60;1.50;;;17.90;94.30;;;;;;4997089;28;20491;-80
2022/10/28 01:43:20;;;;;;;3.45;1.77;;;17.90;94.30;;;;;;4970837;28;20017;-80
2022/10/28 01:45:57;;;;;;;3.97;1.60;;;17.80;94.20;;;;;;4966230;28;20089;-80
2022/10/28 01:48:36;;;;;;;3.33;1.60;;;17.80;94.20;;;;;;4974138;28;20417;-80
2022/10/28 01:51:15;;;;;;;4.15;1.80;;;17.80;94.20;;;;;;4960087;28;20095;-80
2022/10/28 01:53:45;;;;;;;3.92;1.67;;;17.70;94.20;;;;;;4995928;28;20382;-80
2022/10/28 01:56:16;;;;;;;3.17;1.70;;;17.70;94.20;;;;;;4959455;28;20335;-80
2022/10/28 01:58:42;;;;;;;3.93;1.80;;;17.60;94.30;;;;;;4998520;28;20034;-80
2022/10/28 02:01:10;;;;;;;4.43;1.50;;;17.60;94.30;;;;;;4978491;28;20182;-80
2022/10/28 02:03:36;;;;;;;2.78;1.50;;;17.60;94.30;;;;;;4993099;28;20098;-80
2022/10/28 02:06:14;;;;;;;3.70;1.58;;;17.50;94.30;;;;;;4944061;28;20466;-80
2022/10/28 02:08:48;;;;;;;4.05;1.70;;;17.50;94.40;;;;;;4985027;28;20030;-80
2022/10/28 02:11:37;;;;;;;3.83;1.77;;;17.50;94.40;;;;;;4984020;28;20672;-80
2022/10/28 02:14:32;;;;;;;5.05;1.50;;;17.50;94.40;;;;;;4962788;28;20038;-80
2022/10/28 02:17:59;;;;;;;3.15;1.58;;;17.40;94.30;;;;;;4973326;28;20133;-80
2022/10/28 02:20:27;;;;;;;3.40;1.50;;;17.30;94.30;;;;;;4904763;28;20522;-80
2022/10/28 02:23:23;;;;;;;4.57;1.75;;;17.30;94.30;;;;;;4966577;28;20116;-80
2022/10/28 02:26:19;;;;;;;3.63;1.43;;;17.30;94.40;;;;;;5002412;28;20050;-80
2022/10/28 02:28:57;;;;;;;2.28;1.33;;;17.20;94.40;;;;;;4969168;28;20035;-80
2022/10/28 02:31:33;;;;;;;4.40;1.60;;;17.20;94.50;;;;;;4973550;28;20588;-80
2022/10/28 02:34:05;;;;;;;3.28;1.55;;;17.20;94.50;;;;;;4995579;28;20117;-80
2022/10/28 02:36:37;;;;;;;4.05;1.80;;;17.10;94.50;;;;;;4983542;28;20022;-80
2022/10/28 02:39:04;;;;;;;3.40;1.87;;;17.10;94.50;;;;;;4968568;28;20215;-80
2022/10/28 02:41:49;;;;;;;4.13;1.58;;;17.00;94.50;;;;;;5000149;28;20485;-80
2022/10/28 02:44:22;;;;;;;3.30;1.70;;;17.00;94.60;;;;;;4988863;28;20022;-80
2022/10/28 02:46:50;;;;;;;4.40;1.70;;;17.00;94.60;;;;;;4958321;28;20022;-80
2022/10/28 02:49:16;;;;;;;3.45;1.50;;;16.90;94.70;;;;;;4995231;28;20707;-80
2022/10/28 02:51:52;;;;;;;3.47;1.60;;;17.00;94.80;;;;;;4979724;28;20023;-80
2022/10/28 02:54:26;;;;;;;4.07;1.85;;;16.90;94.90;;;;;;4963781;28;20471;-80
2022/10/28 02:57:02;;;;;;;3.10;1.58;;;16.90;94.90;;;;;;4997168;28;20321;-80
2022/10/28 02:59:28;;;;;;;2.97;1.42;;;16.90;94.90;;;;;;4988001;28;20036;-80
2022/10/28 03:01:55;;;;;;;4.53;1.40;;;16.90;94.90;;;;;;4961610;28;20479;-80
2022/10/28 03:04:21;;;;;;;3.03;1.88;;;16.90;95.00;;;;;;4975636;28;20131;-80
2022/10/28 03:06:46;;;;;;;3.30;1.70;;;16.80;95.00;;;;;;4995895;28;20398;-79
2022/10/28 03:09:12;;;;;;;3.57;1.70;;;16.80;95.00;;;;;;4958661;28;20561;-80
2022/10/28 03:11:38;;;;;;;3.60;1.60;;;16.80;95.10;;;;;;5003896;28;20040;-80
2022/10/28 03:14:03;;;;;;;3.50;1.40;;;16.80;95.10;;;;;;4986712;28;20060;-80
2022/10/28 03:16:29;;;;;;;7.17;1.60;;;16.80;95.10;;;;;;4971913;28;20185;-80
2022/10/28 03:18:55;;;;;;;3.03;1.50;;;16.80;95.20;;;;;;4988938;28;20640;-80
2022/10/28 03:21:20;;;;;;;3.77;1.63;;;16.80;95.20;;;;;;4984338;28;20519;-80
2022/10/28 03:23:46;;;;;;;3.38;1.55;;;16.80;95.30;;;;;;4974599;28;20076;-80
2022/10/28 03:26:12;;;;;;;3.83;1.60;;;16.80;95.30;;;;;;4980702;28;20244;-80
2022/10/28 03:28:37;;;;;;;5.72;1.52;;;16.70;95.30;;;;;;4989590;28;20033;-80
2022/10/28 03:31:04;;;;;;;3.97;1.60;;;16.80;95.30;;;;;;4991304;28;20156;-80
2022/10/28 03:33:29;;;;;;;3.10;1.60;;;16.70;95.30;;;;;;4984622;28;20686;-80
2022/10/28 03:35:55;;;;;;;4.88;1.80;;;16.70;95.40;;;;;;4992508;28;20030;-80
2022/10/28 03:38:21;;;;;;;2.90;1.60;;;16.70;95.40;;;;;;4973979;28;20041;-80
2022/10/28 03:40:47;;;;;;;2.90;1.60;;;16.70;95.40;;;;;;4963072;28;20035;-80
2022/10/28 03:43:13;;;;;;;2.90;1.67;;;16.70;95.40;;;;;;4992891;28;20224;-80
2022/10/28 03:45:39;;;;;;;4.07;1.77;;;16.70;95.40;;;;;;4982470;28;20447;-80
2022/10/28 03:48:05;;;;;;;4.47;1.60;;;16.70;95.40;;;;;;4987657;28;20331;-80
2022/10/28 03:50:31;;;;;;;3.63;1.80;;;16.70;95.40;;;;;;5001882;28;20111;-80
2022/10/28 03:52:57;;;;;;;3.50;1.60;;;16.70;95.40;;;;;;4995849;28;20092;-80
2022/10/28 03:55:24;;;;;;;2.83;1.60;;;16.70;95.40;;;;;;4973779;28;20034;-80
2022/10/28 03:57:50;;;;;;;3.28;1.55;;;16.60;95.40;;;;;;4991867;28;20036;-80
2022/10/28 04:00:16;;;;;;;4.13;1.80;;;16.60;95.40;;;;;;4977959;28;20639;-81
2022/10/28 04:02:42;;;;;;;4.63;1.85;;;16.60;95.40;;;;;;5010345;28;20440;-80
2022/10/28 04:05:08;;;;;;;3.57;1.60;;;16.60;95.50;;;;;;4981118;28;20026;-80
2022/10/28 04:07:34;;;;;;;4.25;1.83;;;16.60;95.50;;;;;;4993380;28;20157;-80
2022/10/28 04:09:59;;;;;;;3.87;1.57;;;16.50;95.50;;;;;;4974983;28;20061;-80
2022/10/28 04:12:25;;;;;;;4.57;1.90;;;16.50;95.60;;;;;;4998921;28;20022;-80
2022/10/28 04:14:52;;;;;;;4.63;1.60;;;16.50;95.60;;;;;;4946476;28;20374;-80
2022/10/28 04:17:17;;;;;;;3.25;1.60;;;16.50;95.60;;;;;;4995647;28;20022;-80
2022/10/28 04:19:43;;;;;;;3.13;1.63;;;16.50;95.70;;;;;;4972905;28;20671;-80
2022/10/28 04:22:09;;;;;;;4.32;1.77;;;16.50;95.70;;;;;;4996373;28;20057;-80
2022/10/28 04:24:34;;;;;;;5.03;1.97;;;16.40;95.70;;;;;;4959010;28;20096;-80
2022/10/28 04:27:00;;;;;;;3.25;1.50;;;16.40;95.70;;;;;;4968648;28;20455;-80
2022/10/28 04:29:26;;;;;;;6.33;1.70;;;16.40;95.80;;;;;;4984410;28;20057;-80
2022/10/28 04:31:51;;;;;;;5.82;2.00;;;16.40;95.90;;;;;;4974222;28;20543;-80
2022/10/28 04:34:17;;;;;;;4.57;1.70;;;16.40;96.00;;;;;;4993127;28;20042;-80
2022/10/28 04:36:42;;;;;;;5.17;1.50;;;16.40;96.00;;;;;;4982810;28;20092;-80
2022/10/28 04:39:09;;;;;;;4.30;1.70;;;16.40;96.10;;;;;;4981783;28;20033;-80
2022/10/28 04:41:34;;;;;;;4.25;1.80;;;16.40;96.20;;;;;;4969531;28;20024;-80
2022/10/28 04:44:00;;;;;;;3.80;1.70;;;16.50;96.70;;;;;;4968060;28;20538;-80
2022/10/28 04:46:25;;;;;;;3.35;1.52;;;16.50;96.40;;;;;;4969216;28;20021;-80
2022/10/28 04:48:52;;;;;;;3.87;1.50;;;16.50;96.50;;;;;;4999488;28;20804;-81
2022/10/28 04:51:18;;;;;;;4.72;1.58;;;16.50;96.50;;;;;;4984138;28;20072;-80
2022/10/28 04:53:43;;;;;;;4.57;1.87;;;16.50;96.50;;;;;;4987889;28;20617;-80
2022/10/28 04:56:09;;;;;;;3.13;1.63;;;16.50;96.50;;;;;;4999697;28;20037;-81
2022/10/28 04:58:35;;;;;;;5.07;1.90;;;16.60;96.50;;;;;;4960904;28;20033;-80
2022/10/28 05:01:08;;;;;;;3.35;1.63;;;16.60;96.50;;;;;;4985137;28;20049;-80
2022/10/28 05:03:33;;;;;;;4.47;1.60;;;16.60;96.50;;;;;;4956822;28;20795;-80
2022/10/28 05:05:59;;;;;;;5.13;1.80;;;16.60;96.50;;;;;;4998532;28;20498;-80
2022/10/28 05:08:25;;;;;;;5.88;2.15;;;16.60;96.50;;;;;;4953058;28;20022;-80
2022/10/28 05:10:51;;;;;;;5.33;1.80;;;16.60;96.50;;;;;;4994230;28;20486;-80
2022/10/28 05:13:17;;;;;;;3.92;1.70;;;16.60;96.50;;;;;;4963371;28;20045;-80
2022/10/28 05:15:43;;;;;;;4.13;1.80;;;16.50;96.40;;;;;;4991642;28;20265;-81
2022/10/28 05:18:08;;;;;;;5.10;1.80;;;16.50;96.40;;;;;;4972472;28;20088;-80
2022/10/28 05:20:34;;;;;;;3.97;1.60;;;16.60;96.50;;;;;;4986551;28;20191;-80
2022/10/28 05:23:00;;;;;;;5.23;2.00;;;16.50;96.50;;;;;;4960287;28;20029;-80
2022/10/28 05:25:26;;;;;;;4.45;1.70;;;16.50;96.60;;;;;;4955453;28;20112;-80
2022/10/28 05:27:51;;;;;;;3.03;1.60;;;16.50;96.60;;;;;;4969192;28;20038;-80
2022/10/28 05:30:17;;;;;;;3.63;1.70;;;16.50;96.60;;;;;;4998887;28;20109;-80
2022/10/28 05:32:43;;;;;;;4.70;1.90;;;16.50;96.70;;;;;;4982860;28;20042;-80
2022/10/28 05:35:09;;;;;;;4.32;1.80;;;16.50;96.80;;;;;;4961327;28;20088;-80
2022/10/28 05:37:35;;;;;;;5.60;1.90;;;16.50;96.80;;;;;;4950220;28;20748;-80
2022/10/28 05:40:01;;;;;;;4.20;1.90;;;16.50;96.90;;;;;;4961683;28;20030;-80
2022/10/28 05:42:26;;;;;;;4.00;1.90;;;16.50;97.00;;;;;;4991621;28;20038;-80
2022/10/28 05:44:52;;;;;;;4.97;1.70;;;16.50;97.10;;;;;;4954522;28;20029;-80
2022/10/28 05:47:18;;;;;;;4.70;2.10;;;16.60;97.20;;;;;;4963730;28;20030;-80
2022/10/28 05:49:43;;;;;;;3.93;1.80;;;16.60;97.20;;;;;;4965844;28;20378;-80
2022/10/28 05:52:09;;;;;;;3.60;1.90;;;16.60;97.20;;;;;;4961528;28;20073;-80
2022/10/28 05:54:34;;;;;;;4.27;2.00;;;16.60;97.20;;;;;;4975660;28;20034;-80
2022/10/28 05:57:00;;;;;;;3.83;1.80;;;16.60;97.20;;;;;;4979305;28;20038;-80
2022/10/28 05:59:26;;;;;;;3.47;1.80;;;16.70;97.30;;;;;;4949420;28;20041;-80
2022/10/28 06:01:51;;;;;;;4.17;1.97;;;16.70;97.30;;;;;;4986139;28;20551;-80
2022/10/28 06:04:17;;;;;;;4.07;1.80;;;16.70;97.40;;;;;;4980351;28;20022;-80
2022/10/28 06:06:43;;;;;;;4.43;1.90;;;16.70;97.40;;;;;;4974072;28;20024;-80
2022/10/28 06:09:08;;;;;;;5.90;2.17;;;16.80;97.40;;;;;;4975590;28;20018;-80
2022/10/28 06:11:34;;;;;;;4.83;2.10;;;16.80;97.40;;;;;;4964192;28;20387;-81
2022/10/28 06:14:00;;;;;;;4.68;1.85;;;16.80;97.50;;;;;;4950470;28;20030;-80
2022/10/28 06:16:25;;;;;;;4.50;2.00;;;16.80;97.50;;;;;;5002707;28;20161;-80
2022/10/28 06:18:51;;;;;;;5.18;2.10;;;16.80;97.60;;;;;;4990961;28;21332;-80
2022/10/28 06:21:17;;;;;;;4.00;2.03;;;16.90;97.50;;;;;;4983456;28;20238;-80
2022/10/28 06:23:42;;;;;;;5.20;1.83;;;16.90;97.50;;;;;;4978565;28;20053;-80
2022/10/28 06:26:08;;;;;;;5.73;1.90;;;16.90;97.50;;;;;;4981328;28;20053;-81
2022/10/28 06:28:34;;;;;;;3.70;2.07;;;16.90;97.60;;;;;;4978535;28;20026;-80
2022/10/28 06:31:04;;;;;;;4.07;1.97;;;16.90;97.60;;;;;;4961623;28;20410;-80
2022/10/28 06:33:31;;;;;;;4.30;1.85;;;16.90;97.50;;;;;;4987917;28;20428;-80
2022/10/28 06:35:58;;;;;;;4.70;2.03;;;17.00;97.60;;;;;;4987449;28;21114;-80
2022/10/28 06:38:24;;;;;;;6.33;2.20;;;17.00;97.60;;;;;;4984947;28;20364;-81
2022/10/28 06:40:50;;;;;;;3.60;1.80;;;17.00;97.50;;;;;;4976768;28;20088;-80
2022/10/28 06:43:16;;;;;;;5.60;2.00;;;17.00;97.90;;;;;;4972876;28;20018;-81
2022/10/28 06:45:41;;;;;;;5.90;1.93;;;17.00;97.50;;;;;;4967575;28;20921;-80
2022/10/28 06:48:08;;;;;;;4.53;2.00;;;17.00;97.50;;;;;;4981179;28;20029;-80
2022/10/28 06:50:35;;;;;;;4.17;2.00;;;17.00;97.60;;;;;;4980846;28;20073;-80
2022/10/28 06:53:01;;;;;;;5.57;1.90;;;17.00;97.70;;;;;;4981552;28;20069;-80
2022/10/28 06:55:27;;;;;;;3.75;2.05;;;17.00;97.80;;;;;;4989555;28;20119;-81
2022/10/28 06:57:57;;;;;;;5.35;1.98;;;17.00;97.80;;;;;;4965506;28;20722;-80
2022/10/28 07:00:23;;;;;;;6.67;2.20;;;17.10;98.00;;;;;;4996412;28;20071;-80
2022/10/28 07:02:52;;;;;;;4.90;2.10;;;17.10;98.20;;;;;;4964096;28;20319;-80
2022/10/28 07:05:19;;;;;;;4.20;1.80;;;17.20;98.20;;;;;;4994410;28;20462;-80
2022/10/28 07:07:44;;;;;;;5.20;2.00;;;17.30;98.30;;;;;;4983728;28;20100;-80
2022/10/28 07:10:10;;;;;;;4.90;2.00;;;17.30;98.50;;;;;;4996281;28;20010;-81
2022/10/28 07:12:36;;;;;;;4.63;1.97;;;17.40;98.50;;;;;;4977205;28;20034;-80
2022/10/28 07:15:02;;;;;;;4.18;2.00;;;17.50;98.70;;;;;;4973937;28;20041;-80
2022/10/28 07:17:27;;;;;;;6.28;2.10;;;17.50;98.80;;;;;;4970901;28;20486;-80
2022/10/28 07:19:53;;;;;;;5.33;1.80;;;17.60;98.90;;;;;;4978340;28;20294;-80
2022/10/28 07:22:19;;;;;;;3.93;2.00;;;17.70;99.10;;;;;;4998432;28;20105;-80
2022/10/28 07:24:44;;;;;;;4.15;2.10;;;17.90;99.20;;;;;;4954482;28;20026;-80
2022/10/28 07:27:10;;;;;;;4.00;1.93;;;18.00;99.50;;;;;;4970431;28;20119;-80
2022/10/28 07:29:36;;;;;;;4.47;1.80;;;18.10;99.70;;;;;;4991426;28;20089;-80
2022/10/28 07:32:01;;;;;;;3.33;1.77;;;18.30;99.90;;;;;;4965722;28;20370;-80
2022/10/28 07:34:27;;;;;;;4.75;1.80;;;18.50;99.90;;;;;;4987357;28;20410;-80
2022/10/28 07:36:53;;;;;;;5.80;1.90;;;18.60;99.90;;;;;;4989834;28;20140;-80
2022/10/28 07:39:20;;;;;;;6.07;1.85;;;18.80;99.70;;;;;;4983164;28;20076;-80
2022/10/28 07:41:46;;;;;;;4.25;1.80;;;18.90;99.50;;;;;;4974673;28;20514;-80
2022/10/28 07:44:12;;;;;;;7.53;1.83;;;19.00;99.30;;;;;;4998740;28;20022;-80
2022/10/28 07:46:37;;;;;;;5.10;1.90;;;19.10;99.20;;;;;;4975975;28;20556;-80
2022/10/28 07:49:03;;;;;;;5.68;1.85;;;19.20;99.00;;;;;;4955364;28;20029;-80
2022/10/28 07:51:29;;;;;;;4.33;1.73;;;19.30;98.90;;;;;;4990560;28;20034;-80
2022/10/28 07:53:55;;;;;;;5.45;2.10;;;19.40;98.80;;;;;;4979563;28;20853;-80
2022/10/28 07:56:21;;;;;;;6.05;2.25;;;19.40;98.70;;;;;;4996638;28;20022;-80
2022/10/28 07:58:47;;;;;;;3.80;1.90;;;19.50;98.60;;;;;;4980543;28;20199;-81
2022/10/28 08:01:16;;;;;;;4.90;1.87;;;19.50;98.60;;;;;;4988974;28;20293;-80
2022/10/28 08:03:42;;;;;;;4.07;1.70;;;19.50;98.40;;;;;;4955294;28;20022;-80
2022/10/28 08:06:16;;;;;;;4.60;1.90;;;19.60;98.60;;;;;;4959172;28;20240;-80
2022/10/28 08:08:43;;;;;;;3.70;1.80;;;19.60;98.30;;;;;;4997409;28;20162;-80
2022/10/28 08:11:14;;;;;;;5.65;1.90;;;19.70;98.50;;;;;;4987671;28;20383;-81
2022/10/28 08:13:39;;;;;;;5.38;1.90;;;19.70;98.30;;;;;;4988204;28;20042;-80
2022/10/28 08:16:06;;;;;;;4.83;1.97;;;19.80;98.60;;;;;;4965388;28;20038;-81
2022/10/28 08:18:33;;;;;;;4.25;1.95;;;19.90;98.90;;;;;;4965319;28;20386;-81
2022/10/28 08:21:00;;;;;;;5.05;1.98;;;19.90;98.60;;;;;;4954951;28;20056;-81
2022/10/28 08:23:26;;;;;;;5.57;1.90;;;20.00;98.60;;;;;;4992560;28;20029;-81
2022/10/28 08:25:52;;;;;;;5.70;2.03;;;20.00;98.50;;;;;;4978742;28;20089;-81
2022/10/28 08:28:18;;;;;;;4.23;1.90;;;20.10;98.50;;;;;;4962920;28;21421;-81
2022/10/28 08:30:45;;;;;;;3.65;1.90;;;20.20;98.50;;;;;;4995816;28;20161;-81
2022/10/28 08:33:11;;;;;;;6.13;1.90;;;20.20;98.50;;;;;;4979052;28;20323;-80
2022/10/28 08:35:37;;;;;;;3.97;1.88;;;20.30;98.40;;;;;;4970089;28;20045;-80
2022/10/28 08:38:03;;;;;;;4.40;1.83;;;20.40;98.50;;;;;;4985392;28;20112;-81
2022/10/28 08:41:07;;;;;;;6.90;2.45;;;20.40;98.30;;;;;;4983722;28;20041;-80
2022/10/28 08:43:51;;;;;;;3.70;1.80;;;20.50;97.30;;;;;;4965204;28;20034;-80
2022/10/28 08:46:36;;;;;;;4.57;1.80;;;20.60;97.40;;;;;;4990063;28;20027;-81
2022/10/28 08:49:07;;;;;;;4.80;2.50;;;20.70;97.40;;;;;;4981157;28;20033;-81
2022/10/28 08:51:40;;;;;;;5.13;2.10;;;20.70;98.20;;;;;;4980681;28;20034;-81
2022/10/28 08:54:16;;;;;;;5.05;2.30;;;20.80;98.20;;;;;;4985773;28;20026;-81
2022/10/28 08:56:45;;;;;;;5.00;2.20;;;20.80;97.60;;;;;;4970759;28;20157;-81
2022/10/28 08:59:20;;;;;;;6.87;2.50;;;20.90;97.80;;;;;;4960284;28;20504;-81
2022/10/28 09:01:49;;;;;;;7.38;2.53;;;20.90;97.20;;;;;;4983841;28;20160;-82
2022/10/28 09:04:20;;;;;;;4.43;2.30;;;21.00;97.50;;;;;;4982023;28;21324;-81
2022/10/28 09:06:46;;;;;;;6.10;2.40;;;21.00;97.10;;;;;;4953464;28;20038;-83
2022/10/28 09:09:18;;;;;;;5.47;2.10;;;21.00;97.30;;;;;;4976294;28;20025;-81
2022/10/28 09:11:55;;;;;;;4.80;2.28;;;21.10;97.30;;;;;;4973254;28;20025;-81
2022/10/28 09:14:40;;;;;;;4.97;2.50;;;21.20;98.10;;;;;;4995558;28;20045;-81
2022/10/28 09:17:20;;;;;;;6.53;2.53;;;21.50;98.70;;;;;;4966415;28;20026;-81
2022/10/28 09:19:50;;;;;;;5.70;2.40;;;21.80;99.30;;;;;;4995697;28;20034;-81
2022/10/28 09:22:31;;;;;;;6.22;2.63;;;22.20;99.90;;;;;;4957826;28;20361;-81
2022/10/28 09:25:03;;;;;;;5.55;2.78;;;22.70;99.80;;;;;;4992499;28;20025;-81
2022/10/28 09:27:42;;;;;;;5.65;2.30;;;23.10;99.90;;;;;;4979109;28;20054;-81
2022/10/28 09:30:29;;;;;;;6.07;2.35;;;23.50;99.90;;;;;;4979102;28;20033;-81
2022/10/28 09:33:10;;;;;;;6.23;2.50;;;24.00;99.10;;;;;;4981077;28;20022;-81
2022/10/28 09:35:41;;;;;;;4.07;2.40;;;24.30;99.80;;;;;;4954048;28;20030;-81
2022/10/28 09:38:19;;;;;;;7.03;2.50;;;24.50;97.90;;;;;;4965851;28;20539;-81
2022/10/28 09:40:53;;;;;;;5.38;2.33;;;24.70;97.90;;;;;;4990969;28;20037;-81
2022/10/28 09:43:29;;;;;;;6.85;2.30;;;24.90;97.50;;;;;;4981298;28;20057;-81
2022/10/28 09:46:00;;;;;;;7.03;2.50;;;25.10;96.90;;;;;;4994703;28;20033;-81
2022/10/28 09:48:40;;;;;;;4.97;2.35;;;25.40;98.10;;;;;;4961137;28;20024;-81
2022/10/28 09:51:35;;;;;;;4.80;2.25;;;25.70;96.70;;;;;;4974183;28;20095;-81
2022/10/28 09:54:01;;;;;;;4.78;2.60;;;26.00;97.70;;;;;;4952427;28;20049;-81
2022/10/28 09:56:29;;;;;;;5.90;2.80;;;26.30;98.70;;;;;;4978328;28;20030;-81
2022/10/28 09:58:58;;;;;;;8.23;2.70;;;26.60;98.30;;;;;;4968838;28;20041;-81
2022/10/28 10:01:23;;;;;;;4.63;2.58;;;26.90;97.20;;;;;;4994043;28;20041;-81
2022/10/28 10:03:51;;;;;;;5.15;2.50;;;27.10;97.00;;;;;;4981010;28;20211;-81
2022/10/28 10:06:36;;;;;;;5.95;3.10;;;27.30;96.10;;;;;;4994526;28;20034;-81
2022/10/28 10:09:02;;;;;;;4.83;2.83;;;27.60;94.00;;;;;;4953367;28;20461;-81
2022/10/28 10:11:42;;;;;;;6.63;2.90;;;27.80;96.10;;;;;;4995288;28;20041;-82
2022/10/28 10:14:11;;;;;;;6.47;3.38;;;28.00;93.90;;;;;;4976344;28;20048;-81
2022/10/28 10:16:40;;;;;;;6.78;3.25;;;28.20;94.60;;;;;;4990265;28;20589;-81
2022/10/28 10:19:08;;;;;;;7.75;3.42;;;28.40;94.20;;;;;;4981217;28;20066;-81
2022/10/28 10:21:48;;;;;;;7.30;2.93;;;28.50;93.60;;;;;;4963686;28;20022;-80
2022/10/28 10:24:30;;;;;;;6.07;2.35;;;28.60;91.30;;;;;;4965512;28;20026;-82
2022/10/28 10:27:07;;;;;;;7.63;2.47;;;28.70;92.80;;;;;;4982343;28;20430;-81
2022/10/28 10:29:34;;;;;;;5.85;2.30;;;28.90;92.20;;;;;;4985323;28;20473;-81
2022/10/28 10:32:25;;;;;;;5.70;2.50;;;29.10;93.20;;;;;;4974174;28;20022;-81
2022/10/28 10:35:31;;;;;;;6.77;2.60;;;29.30;91.70;;;;;;4977733;28;20113;-81
2022/10/28 10:38:03;;;;;;;5.30;1.95;;;29.40;89.70;;;;;;4905349;29;20039;-81
2022/10/28 10:40:32;;;;;;;6.22;2.10;;;29.40;91.00;;;;;;4892894;28;20099;-82
2022/10/28 10:43:34;;;;;;;6.95;2.50;;;29.40;90.40;;;;;;4932412;28;20037;-82
2022/10/28 10:46:14;;;;;;;3.78;2.17;;;29.20;87.60;;;;;;4914771;29;20027;-82
2022/10/28 10:48:41;;;;;;;5.20;2.17;;;29.20;85.90;;;;;;4944487;28;20657;-81
2022/10/28 10:51:28;;;;;;;3.42;2.25;;;29.10;88.30;;;;;;4982949;28;20018;-82
2022/10/28 10:53:59;;;;;;;4.13;2.00;;;29.10;84.50;;;;;;4951413;28;20041;-82
2022/10/28 10:56:30;;;;;;;5.55;2.25;;;29.10;88.40;;;;;;4984669;28;20023;-82
2022/10/28 10:59:01;;;;;;;6.43;2.10;;;29.30;85.80;;;;;;4969254;28;20321;-82
2022/10/28 11:01:32;;;;;;;3.93;2.30;;;29.40;86.80;;;;;;4985062;28;20100;-81
2022/10/28 11:04:04;;;;;;;5.75;2.10;;;29.50;87.20;;;;;;4978106;28;20278;-81
2022/10/28 11:06:35;;;;;;;6.72;2.20;;;29.60;84.70;;;;;;4964406;28;20414;-82
2022/10/28 11:09:29;;;;;;;5.55;2.13;;;29.70;85.90;;;;;;4962604;28;21250;-82
2022/10/28 11:11:55;;;;;;;6.20;2.28;;;29.70;78.50;;;;;;4993357;28;20026;-81
2022/10/28 11:14:26;;;;;;;6.00;2.00;;;29.60;81.80;;;;;;4985188;28;20045;-81
2022/10/28 11:16:58;;;;;;;7.32;2.40;;;29.50;78.50;;;;;;4969947;28;20022;-80
2022/10/28 11:19:32;;;;;;;4.10;2.10;;;29.40;77.00;;;;;;4984732;28;20040;-82
2022/10/28 11:22:28;;;;;;;6.90;2.10;;;29.30;75.80;;;;;;4976212;28;20514;-82
2022/10/28 11:25:00;;;;;;;5.35;2.03;;;29.20;76.60;;;;;;4961163;28;20519;-81
2022/10/28 11:27:53;;;;;;;5.80;2.10;;;29.10;76.90;;;;;;4986110;28;20313;-81
2022/10/28 11:30:26;;;;;;;5.43;2.05;;;29.00;76.30;;;;;;4957245;28;20136;-80
2022/10/28 11:32:56;;;;;;;5.38;2.17;;;28.90;77.90;;;;;;4991997;28;20021;-82
2022/10/28 11:35:39;;;;;;;6.90;2.20;;;28.80;78.60;;;;;;4968409;28;20061;-81
2022/10/28 11:38:29;;;;;;;5.13;2.00;;;28.80;77.30;;;;;;4991663;28;20040;-81
2022/10/28 11:41:14;;;;;;;3.67;1.88;;;28.80;73.80;;;;;;4958403;28;20030;-82
2022/10/28 11:43:54;;;;;;;5.43;2.08;;;28.70;69.80;;;;;;4981461;28;20378;-82
2022/10/28 11:46:40;;;;;;;3.83;2.10;;;28.70;68.90;;;;;;4965705;28;20287;-81
2022/10/28 11:49:08;;;;;;;4.23;2.00;;;28.60;73.30;;;;;;4981882;28;20022;-81
2022/10/28 11:51:55;;;;;;;5.43;1.80;;;28.60;75.70;;;;;;4972074;28;20139;-81
2022/10/28 11:54:33;;;;;;;6.20;2.00;;;28.40;74.00;;;;;;4989841;28;20060;-81
2022/10/28 11:57:22;;;;;;;4.65;1.80;;;28.30;74.00;;;;;;4962552;28;20441;-80
2022/10/28 11:59:54;;;;;;;5.07;1.60;;;28.20;74.90;;;;;;4993935;28;20061;-81
2022/10/28 12:02:31;;;;;;;5.13;1.93;;;28.10;77.70;;;;;;4991947;28;20152;-81
2022/10/28 12:05:10;;;;;;;7.20;2.03;;;28.00;75.90;;;;;;4991940;28;20034;-81
2022/10/28 12:07:42;;;;;;;4.30;1.77;;;28.00;75.50;;;;;;4954999;28;22285;-81
2022/10/28 12:10:52;;;;;;;5.95;1.80;;;27.90;76.40;;;;;;4977460;28;20072;-81
2022/10/28 12:13:30;;;;;;;5.60;2.00;;;27.80;74.60;;;;;;4945111;28;20133;-82
2022/10/28 12:16:10;;;;;;;4.83;1.97;;;27.80;75.70;;;;;;4993055;28;20062;-80
2022/10/28 12:18:50;;;;;;;3.75;1.58;;;27.70;74.10;;;;;;4965903;28;20030;-81
2022/10/28 12:21:26;;;;;;;5.05;1.50;;;27.60;74.70;;;;;;4960826;28;20747;-82
2022/10/28 12:23:53;;;;;;;3.45;1.63;;;27.50;75.60;;;;;;4981461;28;20028;-82
2022/10/28 12:26:23;;;;;;;4.85;1.73;;;27.40;76.70;;;;;;4967632;28;21042;-81
2022/10/28 12:28:56;;;;;;;4.50;1.70;;;27.30;76.60;;;;;;4992113;28;20026;-81
2022/10/28 12:31:27;;;;;;;5.13;1.60;;;27.20;75.10;;;;;;4995889;28;20107;-81
2022/10/28 12:33:57;;;;;;;3.22;1.58;;;27.10;76.50;;;;;;4979283;28;20076;-81
2022/10/28 12:36:49;;;;;;;5.75;1.77;;;27.00;76.50;;;;;;4985263;28;20056;-81
2022/10/28 12:39:23;;;;;;;3.97;1.75;;;26.90;75.40;;;;;;4982456;28;20221;-81
2022/10/28 12:42:13;;;;;;;3.20;1.53;;;26.90;75.80;;;;;;4986119;28;20064;-80
2022/10/28 12:44:41;;;;;;;3.50;1.42;;;26.80;75.70;;;;;;4991523;28;20026;-81
2022/10/28 12:47:35;;;;;;;3.63;1.58;;;26.80;77.20;;;;;;4986500;28;20026;-81
2022/10/28 12:50:25;;;;;;;5.03;1.77;;;26.70;75.80;;;;;;4972800;28;20093;-83
2022/10/28 12:53:00;;;;;;;5.70;1.75;;;26.70;75.50;;;;;;4982673;28;20022;-81
2022/10/28 12:55:30;;;;;;;4.87;2.00;;;26.80;78.00;;;;;;4978290;28;20030;-81
2022/10/28 12:58:32;;;;;;;5.85;1.85;;;26.90;77.70;;;;;;4956168;28;20384;-80
2022/10/28 13:01:07;;;;;;;5.30;1.77;;;26.90;76.10;;;;;;4992976;28;20056;-80
2022/10/28 13:03:35;;;;;;;3.58;1.48;;;27.10;78.90;;;;;;4996755;28;20380;-82
2022/10/28 13:06:34;;;;;;;3.30;1.75;;;27.20;80.70;;;;;;4984405;28;20494;-82
2022/10/28 13:09:29;;;;;;;3.27;1.70;;;27.40;76.60;;;;;;4969725;28;20107;-81
2022/10/28 13:12:14;;;;;;;3.58;1.75;;;27.70;78.90;;;;;;4968470;28;20026;-82
2022/10/28 13:14:50;;;;;;;3.10;1.73;;;27.80;76.30;;;;;;4965371;28;20036;-81